Time;durP1;ratioP1;P1;durP2;ratioP2;P2;SDS_P1;SDS_P2;PMS_P1;PMS_P2;Temp;Humidity;BMP_temperature;BMP_pressure;BME280_temperature;BME280_humidity;BME280_pressure;Samples;Min_cycle;Max_cycle;Signal;HPM_P1;HPM_P2
2023/12/03 00:01:16;;;;;;;14.43;12.18;;;0.20;99.90;;;;;;5027841;28;20198;-74
2023/12/03 00:04:02;;;;;;;13.32;11.90;;;0.20;99.90;;;;;;5025119;28;20284;-74
2023/12/03 00:06:49;;;;;;;16.35;12.60;;;0.20;99.90;;;;;;5028442;28;20257;-74
2023/12/03 00:09:36;;;;;;;14.48;11.98;;;0.10;99.90;;;;;;5018534;28;20204;-74
2023/12/03 00:12:22;;;;;;;14.27;12.73;;;0.20;99.90;;;;;;5027550;28;20293;-74
2023/12/03 00:15:08;;;;;;;14.88;12.98;;;0.10;99.90;;;;;;5029022;28;20229;-74
2023/12/03 00:17:54;;;;;;;15.90;12.98;;;0.10;99.90;;;;;;5019265;28;20811;-74
2023/12/03 00:20:40;;;;;;;14.00;12.18;;;0.10;99.90;;;;;;5026598;28;20205;-74
2023/12/03 00:23:29;;;;;;;14.43;12.48;;;0.20;99.90;;;;;;5028303;28;20221;-74
2023/12/03 00:26:15;;;;;;;15.13;12.23;;;0.10;99.90;;;;;;5029943;28;20211;-74
2023/12/03 00:29:01;;;;;;;14.50;12.73;;;0.10;99.90;;;;;;5024630;28;20696;-74
2023/12/03 00:31:46;;;;;;;15.43;12.60;;;0.00;99.90;;;;;;5027408;28;20204;-75
2023/12/03 00:34:32;;;;;;;16.67;13.10;;;-0.10;99.90;;;;;;5029467;28;20237;-74
2023/12/03 00:37:18;;;;;;;17.20;13.00;;;-0.10;99.90;;;;;;5028172;28;20646;-74
2023/12/03 00:40:06;;;;;;;17.38;13.63;;;-0.10;99.90;;;;;;5024855;28;20217;-74
2023/12/03 00:42:54;;;;;;;16.42;13.82;;;-0.10;99.90;;;;;;5026971;28;20225;-74
2023/12/03 00:45:39;;;;;;;15.45;13.32;;;-0.20;99.90;;;;;;5026077;28;20586;-74
2023/12/03 00:48:25;;;;;;;17.70;14.40;;;-0.20;99.90;;;;;;5029711;28;20209;-74
2023/12/03 00:51:11;;;;;;;16.63;14.73;;;-0.30;99.90;;;;;;5024885;28;20244;-74
2023/12/03 00:53:57;;;;;;;17.52;14.60;;;-0.20;99.90;;;;;;5022838;28;20725;-74
2023/12/03 00:56:43;;;;;;;21.70;15.25;;;-0.20;99.90;;;;;;5026366;28;20689;-74
2023/12/03 00:59:29;;;;;;;17.90;14.75;;;-0.20;99.90;;;;;;5029783;28;20209;-74
2023/12/03 01:02:14;;;;;;;17.08;13.88;;;-0.20;99.90;;;;;;5023286;28;20232;-74
2023/12/03 01:05:00;;;;;;;18.02;14.85;;;-0.10;99.90;;;;;;5028431;28;20233;-74
2023/12/03 01:07:46;;;;;;;17.42;14.02;;;-0.10;99.90;;;;;;5026180;28;20209;-74
2023/12/03 01:10:31;;;;;;;16.30;13.85;;;0.00;99.90;;;;;;5025649;28;20208;-74
2023/12/03 01:13:18;;;;;;;17.38;13.25;;;0.00;99.90;;;;;;5028096;28;20636;-74
2023/12/03 01:16:04;;;;;;;17.42;14.23;;;-0.10;99.90;;;;;;5029905;28;20364;-74
2023/12/03 01:18:50;;;;;;;19.77;14.93;;;-0.10;99.90;;;;;;5021719;28;20332;-74
2023/12/03 01:21:36;;;;;;;18.42;14.70;;;-0.20;99.90;;;;;;5024109;28;20701;-74
2023/12/03 01:24:21;;;;;;;22.88;15.05;;;-0.30;99.90;;;;;;5028828;28;20244;-75
2023/12/03 01:27:07;;;;;;;19.33;14.80;;;-0.30;99.90;;;;;;5030256;28;20209;-72
2023/12/03 01:29:54;;;;;;;23.00;17.40;;;-0.40;99.90;;;;;;5033684;28;20202;-75
2023/12/03 01:32:40;;;;;;;20.65;15.90;;;-0.50;99.90;;;;;;5030013;28;20680;-76
2023/12/03 01:35:26;;;;;;;17.73;14.95;;;-0.50;99.90;;;;;;5033929;28;20298;-75
2023/12/03 01:38:12;;;;;;;18.73;15.13;;;-0.60;99.90;;;;;;5033041;28;20276;-74
2023/12/03 01:40:57;;;;;;;18.15;15.80;;;-0.70;99.90;;;;;;5031800;28;20217;-75
2023/12/03 01:43:50;;;;;;;20.10;16.02;;;-0.60;99.90;;;;;;5026278;28;20311;-75
2023/12/03 01:46:38;;;;;;;19.40;15.75;;;-0.60;99.90;;;;;;5031427;28;20586;-75
2023/12/03 01:49:23;;;;;;;22.70;17.65;;;-0.60;99.90;;;;;;5027258;28;20321;-75
2023/12/03 01:52:09;;;;;;;22.95;18.70;;;-0.60;99.90;;;;;;5033719;28;20213;-75
2023/12/03 01:54:56;;;;;;;22.90;16.80;;;-0.70;99.90;;;;;;5033404;28;20242;-75
2023/12/03 01:57:43;;;;;;;21.02;15.63;;;-0.80;99.90;;;;;;5025934;28;20697;-75
2023/12/03 02:00:29;;;;;;;21.80;18.40;;;-0.90;99.90;;;;;;5029975;28;20211;-75
2023/12/03 02:03:16;;;;;;;21.83;18.10;;;-0.90;99.90;;;;;;5027861;28;20356;-73
2023/12/03 02:06:06;;;;;;;20.73;17.55;;;-1.00;99.90;;;;;;5028584;28;20213;-75
2023/12/03 02:08:53;;;;;;;24.58;18.25;;;-1.00;99.90;;;;;;5028152;28;20209;-75
2023/12/03 02:11:39;;;;;;;22.27;17.80;;;-1.10;99.90;;;;;;5029766;28;20476;-75
2023/12/03 02:14:24;;;;;;;24.45;19.75;;;-1.10;99.90;;;;;;5029742;28;20225;-75
2023/12/03 02:17:09;;;;;;;27.98;20.27;;;-1.10;99.90;;;;;;5029805;28;20209;-75
2023/12/03 02:19:57;;;;;;;23.92;19.25;;;-1.10;99.90;;;;;;5033017;28;20213;-74
2023/12/03 02:22:58;;;;;;;24.02;19.88;;;-1.20;99.90;;;;;;5029239;28;20808;-75
2023/12/03 02:25:44;;;;;;;28.45;19.98;;;-1.20;99.90;;;;;;5029153;28;20240;-75
2023/12/03 02:28:29;;;;;;;25.67;20.30;;;-1.20;99.90;;;;;;5031516;28;20201;-75
2023/12/03 02:31:15;;;;;;;25.83;20.05;;;-1.20;99.90;;;;;;5028507;28;20316;-74
2023/12/03 02:34:07;;;;;;;29.77;21.70;;;-1.20;99.90;;;;;;5029249;28;20218;-75
2023/12/03 02:36:53;;;;;;;25.17;20.75;;;-1.30;99.90;;;;;;5029499;28;20205;-75
2023/12/03 02:39:40;;;;;;;23.92;20.73;;;-1.30;99.90;;;;;;5027615;28;20295;-75
2023/12/03 02:42:25;;;;;;;26.88;21.10;;;-1.30;99.90;;;;;;5030443;28;20283;-74
2023/12/03 02:45:11;;;;;;;25.80;20.23;;;-1.30;99.90;;;;;;5033781;28;20280;-74
2023/12/03 02:47:57;;;;;;;32.88;24.45;;;-1.30;99.90;;;;;;5032790;28;20252;-75
2023/12/03 02:50:43;;;;;;;25.90;21.13;;;-1.30;99.90;;;;;;5030128;28;20202;-75
2023/12/03 02:53:28;;;;;;;26.73;21.38;;;-1.30;99.90;;;;;;5032899;28;20202;-74
2023/12/03 02:56:16;;;;;;;28.60;21.80;;;-1.30;99.90;;;;;;5029982;28;20341;-75
2023/12/03 02:59:01;;;;;;;31.05;23.10;;;-1.30;99.90;;;;;;5031516;28;20255;-75
2023/12/03 03:01:47;;;;;;;31.45;24.17;;;-1.20;99.90;;;;;;5029075;28;20202;-75
2023/12/03 03:04:33;;;;;;;31.70;24.67;;;-1.30;99.90;;;;;;5032421;28;20221;-75
2023/12/03 03:07:18;;;;;;;36.28;24.88;;;-1.30;99.90;;;;;;5032076;28;20212;-74
2023/12/03 03:10:05;;;;;;;33.45;24.92;;;-1.30;99.90;;;;;;5027220;28;20212;-74
2023/12/03 03:12:52;;;;;;;30.98;24.10;;;-1.40;99.90;;;;;;5031968;28;20193;-75
2023/12/03 03:15:37;;;;;;;29.92;23.60;;;-1.40;99.90;;;;;;5026067;28;20821;-75
2023/12/03 03:18:23;;;;;;;33.58;25.15;;;-1.30;99.90;;;;;;5029147;28;20279;-75
2023/12/03 03:21:09;;;;;;;31.60;24.30;;;-1.40;99.90;;;;;;5032025;28;20202;-75
2023/12/03 03:23:55;;;;;;;28.42;23.20;;;-1.40;99.90;;;;;;5029643;28;20235;-74
2023/12/03 03:26:40;;;;;;;32.83;25.08;;;-1.40;99.90;;;;;;5030995;28;20205;-74
2023/12/03 03:29:27;;;;;;;30.45;24.45;;;-1.40;99.90;;;;;;5028476;28;20576;-75
2023/12/03 03:32:13;;;;;;;32.13;24.77;;;-1.40;99.90;;;;;;5031486;28;20755;-74
2023/12/03 03:34:58;;;;;;;32.80;24.98;;;-1.40;99.90;;;;;;5030197;28;20229;-75
2023/12/03 03:37:44;;;;;;;34.53;25.90;;;-1.50;99.90;;;;;;5024719;28;20607;-75
2023/12/03 03:40:30;;;;;;;30.88;25.17;;;-1.50;99.90;;;;;;5026058;28;20277;-75
2023/12/03 03:43:15;;;;;;;30.00;24.67;;;-1.50;99.90;;;;;;5024440;28;20229;-74
2023/12/03 03:46:02;;;;;;;32.65;25.20;;;-1.30;99.90;;;;;;5026815;28;20261;-75
2023/12/03 03:48:48;;;;;;;34.58;26.92;;;-1.40;99.90;;;;;;5029538;28;20273;-75
2023/12/03 03:51:33;;;;;;;32.42;25.38;;;-1.50;99.90;;;;;;5031271;28;20205;-75
2023/12/03 03:54:19;;;;;;;33.28;24.92;;;-1.40;99.90;;;;;;5027911;28;20225;-75
2023/12/03 03:57:05;;;;;;;36.47;27.45;;;-1.30;99.90;;;;;;5023260;28;20214;-75
2023/12/03 03:59:51;;;;;;;34.10;26.90;;;-1.40;99.90;;;;;;5025264;28;20208;-75
2023/12/03 04:02:38;;;;;;;32.55;25.42;;;-1.20;99.90;;;;;;5028954;28;20206;-75
2023/12/03 04:05:24;;;;;;;35.85;26.67;;;-1.20;99.90;;;;;;5027657;28;20715;-75
2023/12/03 04:08:09;;;;;;;34.30;26.08;;;-1.20;99.90;;;;;;5029415;28;20228;-74
2023/12/03 04:10:55;;;;;;;34.00;25.55;;;-1.20;99.90;;;;;;5025574;28;20318;-75
2023/12/03 04:13:41;;;;;;;34.47;25.10;;;-1.30;99.90;;;;;;5029304;28;20665;-75
2023/12/03 04:16:26;;;;;;;31.80;25.85;;;-1.30;99.90;;;;;;5027153;28;20279;-75
2023/12/03 04:19:13;;;;;;;34.33;25.05;;;-1.30;99.90;;;;;;5026659;28;20208;-74
2023/12/03 04:21:59;;;;;;;36.33;26.92;;;-1.30;99.90;;;;;;5029553;28;20209;-75
2023/12/03 04:24:46;;;;;;;36.67;29.20;;;-1.40;99.90;;;;;;5030341;28;20368;-75
2023/12/03 04:27:32;;;;;;;32.63;25.80;;;-1.40;99.90;;;;;;5031153;28;20207;-75
2023/12/03 04:30:17;;;;;;;33.22;25.67;;;-1.30;99.90;;;;;;5025920;28;20214;-75
2023/12/03 04:33:03;;;;;;;34.15;25.92;;;-1.30;99.90;;;;;;5029231;28;20287;-75
2023/12/03 04:35:50;;;;;;;41.08;27.23;;;-1.30;99.90;;;;;;5030554;28;20228;-74
2023/12/03 04:38:37;;;;;;;37.25;27.58;;;-1.20;99.90;;;;;;5030541;28;20791;-75
2023/12/03 04:41:23;;;;;;;35.92;28.35;;;-1.10;99.90;;;;;;5027743;28;20257;-74
2023/12/03 04:44:09;;;;;;;35.08;26.60;;;-1.10;99.90;;;;;;5027161;28;20221;-74
2023/12/03 04:46:55;;;;;;;36.65;28.95;;;-1.00;99.90;;;;;;5028528;28;20283;-75
2023/12/03 04:49:40;;;;;;;43.70;29.33;;;-0.90;99.90;;;;;;5026978;28;20259;-75
2023/12/03 04:52:27;;;;;;;34.58;26.83;;;-0.80;99.90;;;;;;5028536;28;20211;-75
2023/12/03 04:55:12;;;;;;;39.15;29.30;;;-0.70;99.90;;;;;;5025597;28;20224;-75
2023/12/03 04:57:58;;;;;;;42.65;29.77;;;-0.60;99.90;;;;;;5028716;28;20292;-75
2023/12/03 05:00:43;;;;;;;38.70;28.27;;;-0.70;99.90;;;;;;5027272;28;20344;-75
2023/12/03 05:03:29;;;;;;;36.67;27.27;;;-0.80;99.90;;;;;;5027345;28;20227;-75
2023/12/03 05:06:15;;;;;;;36.20;27.45;;;-0.70;99.90;;;;;;5022734;28;20632;-75
2023/12/03 05:09:03;;;;;;;41.22;30.05;;;-0.70;99.90;;;;;;5026895;28;20243;-75
2023/12/03 05:11:49;;;;;;;37.55;29.13;;;-0.70;99.90;;;;;;5027188;28;20293;-75
2023/12/03 05:14:34;;;;;;;40.38;29.02;;;-0.70;99.90;;;;;;5028109;28;20220;-75
2023/12/03 05:17:20;;;;;;;40.70;28.55;;;-0.70;99.90;;;;;;5026028;28;20200;-75
2023/12/03 05:20:07;;;;;;;37.13;28.10;;;-0.70;99.90;;;;;;5029985;28;20203;-74
2023/12/03 05:22:53;;;;;;;38.42;28.13;;;-0.60;99.90;;;;;;5024759;28;20207;-76
2023/12/03 05:25:40;;;;;;;38.03;29.08;;;-0.60;99.90;;;;;;5026464;28;20360;-76
2023/12/03 05:28:26;;;;;;;40.83;28.08;;;-0.60;99.90;;;;;;5023620;28;20339;-74
2023/12/03 05:31:12;;;;;;;39.03;27.38;;;-0.60;99.90;;;;;;5027297;28;20245;-73
2023/12/03 05:33:57;;;;;;;39.95;27.58;;;-0.70;99.90;;;;;;5028502;28;20812;-76
2023/12/03 05:36:43;;;;;;;42.00;30.88;;;-0.70;99.90;;;;;;5029813;28;20694;-76
2023/12/03 05:39:29;;;;;;;38.17;27.88;;;-0.70;99.90;;;;;;5027054;28;20200;-75
2023/12/03 05:42:16;;;;;;;40.50;28.75;;;-0.70;99.90;;;;;;5025288;28;20194;-76
2023/12/03 05:45:01;;;;;;;33.15;25.92;;;-0.80;99.90;;;;;;5029664;28;20299;-76
2023/12/03 05:47:47;;;;;;;40.85;27.75;;;-0.70;99.90;;;;;;5029825;28;20259;-73
2023/12/03 05:50:32;;;;;;;37.35;28.08;;;-0.70;99.90;;;;;;5023598;28;20680;-75
2023/12/03 05:53:18;;;;;;;43.72;30.45;;;-0.70;99.90;;;;;;5025197;28;20696;-74
2023/12/03 05:56:04;;;;;;;40.00;28.05;;;-0.70;99.90;;;;;;5028874;28;20264;-76
2023/12/03 05:58:51;;;;;;;36.58;28.73;;;-0.80;99.90;;;;;;5028613;28;20212;-75
2023/12/03 06:01:37;;;;;;;40.00;29.42;;;-0.80;99.90;;;;;;5024939;28;20618;-75
2023/12/03 06:04:22;;;;;;;40.47;28.70;;;-0.80;99.90;;;;;;5025338;28;20731;-76
2023/12/03 06:07:08;;;;;;;41.72;28.98;;;-0.80;99.90;;;;;;5029698;28;20731;-76
2023/12/03 06:09:53;;;;;;;41.17;31.15;;;-0.80;99.90;;;;;;5026023;28;20202;-76
2023/12/03 06:12:39;;;;;;;41.08;29.60;;;-0.90;99.90;;;;;;5031904;28;20694;-75
2023/12/03 06:15:26;;;;;;;40.70;28.75;;;-0.90;99.90;;;;;;5028804;28;20283;-75
2023/12/03 06:18:12;;;;;;;37.90;27.05;;;-0.90;99.90;;;;;;5027541;28;20208;-76
2023/12/03 06:20:57;;;;;;;39.80;27.52;;;-1.00;99.90;;;;;;5033768;28;20325;-76
2023/12/03 06:23:43;;;;;;;35.95;26.45;;;-1.10;99.90;;;;;;5030443;28;20220;-75
2023/12/03 06:26:29;;;;;;;38.85;26.90;;;-1.20;99.90;;;;;;5028254;28;20217;-73
2023/12/03 06:29:14;;;;;;;38.20;27.67;;;-1.20;99.90;;;;;;5024721;28;20260;-76
2023/12/03 06:32:02;;;;;;;40.95;28.85;;;-1.20;99.90;;;;;;5028066;28;20215;-76
2023/12/03 06:34:47;;;;;;;37.88;26.15;;;-1.30;99.90;;;;;;5032696;28;20225;-74
2023/12/03 06:37:33;;;;;;;38.05;27.83;;;-1.40;99.90;;;;;;5031080;28;20523;-76
2023/12/03 06:40:19;;;;;;;42.15;27.58;;;-1.40;99.90;;;;;;5028401;28;20208;-76
2023/12/03 06:43:04;;;;;;;41.03;29.20;;;-1.40;99.90;;;;;;5031865;28;20224;-75
2023/12/03 06:45:50;;;;;;;39.45;28.88;;;-1.40;99.90;;;;;;5032297;28;20232;-75
2023/12/03 06:48:37;;;;;;;41.42;29.27;;;-1.50;99.90;;;;;;5030734;28;20298;-75
2023/12/03 06:51:23;;;;;;;36.45;26.98;;;-1.50;99.90;;;;;;5028524;28;20689;-76
2023/12/03 06:54:08;;;;;;;41.90;29.13;;;-1.50;99.90;;;;;;5032439;28;20291;-76
2023/12/03 06:56:54;;;;;;;41.15;30.48;;;-1.60;99.90;;;;;;5030234;28;20579;-75
2023/12/03 06:59:40;;;;;;;41.05;30.73;;;-1.70;99.90;;;;;;5030818;28;20217;-74
2023/12/03 07:02:25;;;;;;;43.13;30.33;;;-1.80;99.90;;;;;;5028182;28;20277;-76
2023/12/03 07:05:13;;;;;;;40.72;29.98;;;-1.80;99.90;;;;;;5032037;28;20699;-75
2023/12/03 07:07:58;;;;;;;39.50;28.20;;;-1.80;99.90;;;;;;5030168;28;20209;-75
2023/12/03 07:10:44;;;;;;;42.83;30.25;;;-1.80;99.90;;;;;;5032287;28;20218;-75
2023/12/03 07:13:30;;;;;;;42.70;29.52;;;-1.80;99.90;;;;;;5027437;28;20212;-75
2023/12/03 07:16:16;;;;;;;40.38;29.40;;;-1.80;99.90;;;;;;5030270;28;20680;-76
2023/12/03 07:19:01;;;;;;;43.42;29.13;;;-1.90;99.90;;;;;;5031949;28;20687;-76
2023/12/03 07:21:49;;;;;;;39.92;30.45;;;-1.90;99.90;;;;;;5030925;28;20439;-74
2023/12/03 07:24:34;;;;;;;43.17;29.38;;;-1.90;99.90;;;;;;5051742;22;20261;-86
2023/12/03 07:27:20;;;;;;;40.42;28.85;;;-2.00;99.90;;;;;;5093434;28;20217;-86
2023/12/03 07:30:08;;;;;;;46.20;28.10;;;-2.00;99.90;;;;;;5106069;28;20214;-87
2023/12/03 07:32:53;;;;;;;37.92;28.27;;;-1.90;99.90;;;;;;5110177;28;20234;-85
2023/12/03 07:35:40;;;;;;;41.22;29.52;;;-1.90;99.90;;;;;;5113294;28;20214;-85
2023/12/03 07:38:29;;;;;;;40.13;28.88;;;-1.90;99.90;;;;;;5098239;28;20203;-86
2023/12/03 07:41:14;;;;;;;39.60;28.10;;;-1.90;99.90;;;;;;5099172;28;20219;-86
2023/12/03 07:44:00;;;;;;;40.70;29.75;;;-1.90;99.90;;;;;;5094796;28;20204;-85
2023/12/03 07:46:46;;;;;;;41.35;28.48;;;-1.90;99.90;;;;;;5110588;28;20195;-87
2023/12/03 07:49:32;;;;;;;38.75;27.77;;;-1.80;99.90;;;;;;5096151;28;20203;-85
2023/12/03 07:52:19;;;;;;;42.88;29.08;;;-1.90;99.90;;;;;;5097621;28;20222;-87
2023/12/03 07:55:08;;;;;;;44.05;30.58;;;-1.90;99.90;;;;;;5110905;28;20278;-86
2023/12/03 07:57:53;;;;;;;45.00;30.95;;;-1.90;99.90;;;;;;5107897;28;20576;-84
2023/12/03 08:00:40;;;;;;;36.45;27.95;;;-1.80;99.90;;;;;;5102030;28;20210;-86
2023/12/03 08:03:25;;;;;;;42.17;29.95;;;-1.90;99.90;;;;;;5102220;28;20195;-86
2023/12/03 08:06:12;;;;;;;40.85;30.63;;;-1.80;99.90;;;;;;5113724;28;20221;-86
2023/12/03 08:08:59;;;;;;;42.20;29.27;;;-1.80;99.90;;;;;;5112823;28;20322;-85
2023/12/03 08:11:46;;;;;;;40.40;29.25;;;-1.80;99.90;;;;;;5113172;28;20333;-86
2023/12/03 08:14:31;;;;;;;40.63;28.85;;;-1.80;99.90;;;;;;5088554;28;20320;-86
2023/12/03 08:17:17;;;;;;;39.25;27.80;;;-1.80;99.90;;;;;;5087396;28;20235;-86
2023/12/03 08:20:05;;;;;;;38.00;27.73;;;-1.70;99.90;;;;;;5107218;28;20277;-86
2023/12/03 08:22:50;;;;;;;43.05;29.38;;;-1.60;99.90;;;;;;5092039;28;20226;-85
2023/12/03 08:25:36;;;;;;;40.58;29.02;;;-1.40;99.90;;;;;;5097993;28;20227;-86
2023/12/03 08:28:23;;;;;;;41.97;28.63;;;-1.50;99.90;;;;;;5111098;28;20210;-86
2023/12/03 08:31:09;;;;;;;39.42;29.23;;;-1.50;99.90;;;;;;5106668;28;20229;-86
2023/12/03 08:33:54;;;;;;;39.63;28.33;;;-1.40;99.90;;;;;;5105346;28;20204;-86
2023/12/03 08:36:40;;;;;;;46.20;30.33;;;-1.50;99.90;;;;;;5112544;28;20202;-86
2023/12/03 08:39:26;;;;;;;42.55;30.55;;;-1.50;99.90;;;;;;5107467;28;20196;-86
2023/12/03 08:42:12;;;;;;;37.17;28.23;;;-1.50;99.90;;;;;;5114164;28;20241;-86
2023/12/03 08:44:59;;;;;;;40.97;29.05;;;-1.50;99.90;;;;;;5099984;28;20705;-86
2023/12/03 08:47:45;;;;;;;39.60;27.52;;;-1.50;99.90;;;;;;5101815;28;20651;-85
2023/12/03 08:50:31;;;;;;;44.70;30.60;;;-1.30;99.90;;;;;;5107361;28;20198;-85
2023/12/03 08:53:17;;;;;;;41.15;28.48;;;-1.30;99.90;;;;;;5120516;28;20202;-85
2023/12/03 08:56:03;;;;;;;40.50;27.75;;;-1.20;99.90;;;;;;5113461;28;20657;-87
2023/12/03 08:58:49;;;;;;;38.08;27.95;;;-1.10;99.90;;;;;;5112296;28;20207;-85
2023/12/03 09:01:39;;;;;;;53.13;31.08;;;-1.00;99.90;;;;;;5103841;28;20286;-86
2023/12/03 09:04:25;;;;;;;40.63;28.20;;;-0.90;99.90;;;;;;5103382;28;20423;-86
2023/12/03 09:07:12;;;;;;;40.60;27.88;;;-0.90;99.90;;;;;;5113837;28;20198;-86
2023/12/03 09:09:57;;;;;;;38.72;29.25;;;-0.80;99.90;;;;;;5109373;28;20213;-85
2023/12/03 09:12:43;;;;;;;36.88;26.38;;;-0.70;99.90;;;;;;5112776;28;20308;-85
2023/12/03 09:15:29;;;;;;;37.70;29.65;;;-0.70;99.90;;;;;;5100974;28;20256;-86
2023/12/03 09:18:16;;;;;;;35.72;27.42;;;-0.60;99.90;;;;;;5100080;28;20243;-87
2023/12/03 09:21:02;;;;;;;42.42;27.30;;;-0.60;99.90;;;;;;5110512;28;20340;-86
2023/12/03 09:23:48;;;;;;;38.28;26.80;;;-0.40;99.90;;;;;;5103013;28;20215;-85
2023/12/03 09:26:34;;;;;;;35.88;26.38;;;-0.40;99.90;;;;;;5109026;28;20241;-86
2023/12/03 09:29:20;;;;;;;34.60;25.15;;;-0.40;99.90;;;;;;5106908;28;20248;-86
2023/12/03 09:32:06;;;;;;;35.25;25.90;;;-0.30;99.90;;;;;;5104951;28;20215;-86
2023/12/03 09:34:53;;;;;;;37.45;25.85;;;-0.20;99.90;;;;;;5099572;28;20217;-86
2023/12/03 09:37:38;;;;;;;32.67;23.48;;;-0.20;99.90;;;;;;5100235;28;20795;-87
2023/12/03 09:40:25;;;;;;;32.40;24.15;;;-0.30;99.90;;;;;;5109283;28;20199;-86
2023/12/03 09:43:11;;;;;;;41.50;26.92;;;-0.20;99.90;;;;;;5112537;28;20261;-86
2023/12/03 09:45:57;;;;;;;36.17;25.70;;;-0.20;99.90;;;;;;5112385;28;20245;-85
2023/12/03 09:48:44;;;;;;;33.78;24.40;;;-0.20;99.90;;;;;;5114794;28;20324;-86
2023/12/03 09:51:33;;;;;;;36.25;25.08;;;-0.10;99.90;;;;;;5105644;28;20220;-86
2023/12/03 09:54:20;;;;;;;39.15;27.17;;;-0.10;99.90;;;;;;5109370;28;20207;-88
2023/12/03 09:57:08;;;;;;;33.50;24.33;;;0.00;99.90;;;;;;5108134;28;20198;-86
2023/12/03 09:59:57;;;;;;;38.50;25.55;;;0.10;99.90;;;;;;5106826;28;20314;-86
2023/12/03 10:02:44;;;;;;;34.15;24.77;;;0.20;99.90;;;;;;5109489;28;20221;-85
2023/12/03 10:05:30;;;;;;;34.95;26.70;;;0.20;99.90;;;;;;5110557;28;20218;-86
2023/12/03 10:08:17;;;;;;;37.35;28.30;;;0.30;99.90;;;;;;5100538;28;20206;-86
2023/12/03 10:11:07;;;;;;;33.08;25.60;;;0.30;99.90;;;;;;5113550;28;20623;-86
2023/12/03 10:13:56;;;;;;;28.38;22.98;;;0.60;99.90;;;;;;5101300;28;20206;-86
2023/12/03 10:16:48;;;;;;;33.85;23.98;;;0.80;99.90;;;;;;5113858;28;20279;-87
2023/12/03 10:19:34;;;;;;;33.33;23.80;;;1.20;99.90;;;;;;5113730;28;20622;-87
2023/12/03 10:22:32;;;;;;;31.17;20.10;;;1.60;99.90;;;;;;5106784;28;20246;-86
2023/12/03 10:25:37;;;;;;;30.95;20.67;;;2.00;99.90;;;;;;5101241;28;20360;-85
2023/12/03 10:28:25;;;;;;;30.63;22.13;;;2.30;99.90;;;;;;5110501;28;20204;-87
2023/12/03 10:31:12;;;;;;;29.92;21.98;;;2.50;94.90;;;;;;5103846;28;20337;-88
2023/12/03 10:33:58;;;;;;;30.02;20.50;;;2.80;92.80;;;;;;5105349;28;20195;-86
2023/12/03 10:36:43;;;;;;;31.42;21.20;;;3.20;88.60;;;;;;5111220;28;20202;-87
2023/12/03 10:39:31;;;;;;;28.50;20.55;;;3.50;83.20;;;;;;5100284;28;20199;-87
2023/12/03 10:42:18;;;;;;;27.50;17.73;;;3.70;81.40;;;;;;5114391;28;20210;-86
2023/12/03 10:45:07;;;;;;;25.98;17.58;;;3.90;78.90;;;;;;5109951;28;20230;-85
2023/12/03 10:47:56;;;;;;;26.00;17.40;;;3.80;69.00;;;;;;5099862;28;20203;-86
2023/12/03 10:50:45;;;;;;;27.60;19.13;;;3.80;68.10;;;;;;5097153;28;20668;-85
2023/12/03 10:53:32;;;;;;;28.25;18.70;;;3.60;69.30;;;;;;5100947;28;20282;-87
2023/12/03 10:56:18;;;;;;;27.35;18.88;;;3.50;68.90;;;;;;5109594;28;20786;-84
2023/12/03 10:59:10;;;;;;;26.13;18.50;;;3.40;67.90;;;;;;5113843;28;20573;-86
2023/12/03 11:01:58;;;;;;;26.63;18.55;;;3.20;70.60;;;;;;5114472;28;20293;-86
2023/12/03 11:04:51;;;;;;;28.70;18.33;;;3.20;71.50;;;;;;5108251;28;20209;-86
2023/12/03 11:07:38;;;;;;;27.08;17.35;;;3.20;69.20;;;;;;5103674;28;20571;-87
2023/12/03 11:10:23;;;;;;;22.92;14.95;;;3.20;72.20;;;;;;5101918;28;20689;-85
2023/12/03 11:13:11;;;;;;;23.70;17.40;;;3.10;73.20;;;;;;5095967;28;20238;-87
2023/12/03 11:15:59;;;;;;;25.58;16.83;;;3.00;74.30;;;;;;5100045;28;20220;-85
2023/12/03 11:18:53;;;;;;;25.08;15.68;;;3.00;73.50;;;;;;5097119;28;20633;-85
2023/12/03 11:21:45;;;;;;;26.08;17.60;;;2.90;75.00;;;;;;5086588;28;20223;-84
2023/12/03 11:24:45;;;;;;;26.25;16.73;;;2.60;74.90;;;;;;5088272;28;20234;-86
2023/12/03 11:27:31;;;;;;;24.08;16.15;;;2.40;73.40;;;;;;5090545;28;20191;-86
2023/12/03 11:30:36;;;;;;;25.90;16.52;;;2.30;76.40;;;;;;5096411;28;20277;-86
2023/12/03 11:33:24;;;;;;;29.08;18.45;;;2.30;75.40;;;;;;5094984;28;20202;-87
2023/12/03 11:36:11;;;;;;;22.67;15.80;;;2.30;77.20;;;;;;5091705;28;20238;-86
2023/12/03 11:38:58;;;;;;;22.17;16.80;;;2.20;74.10;;;;;;5101591;28;20269;-86
2023/12/03 11:41:44;;;;;;;22.70;15.73;;;2.20;76.50;;;;;;5101935;28;20235;-85
2023/12/03 11:44:29;;;;;;;27.90;17.10;;;2.10;77.00;;;;;;5105483;28;20195;-86
2023/12/03 11:47:15;;;;;;;24.73;17.02;;;2.10;76.30;;;;;;5095064;28;20215;-86
2023/12/03 11:50:02;;;;;;;25.27;17.02;;;2.00;75.10;;;;;;5094493;28;20341;-86
2023/12/03 11:52:47;;;;;;;26.00;16.73;;;2.00;77.30;;;;;;5099498;28;20704;-85
2023/12/03 11:55:35;;;;;;;26.42;18.02;;;2.10;77.20;;;;;;5086594;28;20275;-86
2023/12/03 11:58:22;;;;;;;27.70;19.05;;;2.00;79.50;;;;;;5093260;28;20207;-86
2023/12/03 12:01:09;;;;;;;27.50;19.15;;;2.00;80.50;;;;;;5096746;28;20375;-86
2023/12/03 12:03:54;;;;;;;24.25;16.50;;;2.10;80.40;;;;;;5105841;28;20202;-86
2023/12/03 12:06:41;;;;;;;28.60;19.00;;;2.20;79.70;;;;;;5095148;28;20223;-85
2023/12/03 12:09:27;;;;;;;27.77;17.92;;;2.30;76.70;;;;;;5104579;28;20198;-86
2023/12/03 12:12:12;;;;;;;28.50;18.20;;;2.30;75.70;;;;;;5095547;28;20230;-84
2023/12/03 12:14:58;;;;;;;27.05;17.55;;;2.40;77.80;;;;;;5097692;28;20261;-85
2023/12/03 12:17:44;;;;;;;27.38;18.45;;;2.60;77.70;;;;;;5094600;28;20725;-84
2023/12/03 12:20:30;;;;;;;27.50;18.42;;;2.70;78.20;;;;;;5095009;28;20210;-86
2023/12/03 12:23:17;;;;;;;30.27;19.92;;;2.90;73.80;;;;;;5098062;28;20203;-86
2023/12/03 12:26:03;;;;;;;32.08;20.58;;;3.20;70.00;;;;;;5107261;28;20222;-86
2023/12/03 12:28:49;;;;;;;29.83;19.40;;;3.20;71.20;;;;;;5107380;28;20200;-86
2023/12/03 12:31:35;;;;;;;33.33;19.55;;;3.50;69.30;;;;;;5098671;28;20247;-86
2023/12/03 12:34:24;;;;;;;33.35;19.77;;;3.70;66.10;;;;;;5099038;28;20233;-86
2023/12/03 12:37:09;;;;;;;25.67;17.75;;;4.20;68.40;;;;;;5093939;28;20337;-85
2023/12/03 12:40:07;;;;;;;27.63;18.85;;;4.80;60.70;;;;;;5100200;28;20207;-85
2023/12/03 12:43:04;;;;;;;25.50;17.10;;;5.30;47.00;;;;;;5092383;28;20585;-86
2023/12/03 12:45:50;;;;;;;26.65;17.55;;;5.30;36.00;;;;;;5094516;28;20591;-86
2023/12/03 12:48:35;;;;;;;26.75;17.75;;;6.10;32.10;;;;;;5088861;28;20223;-86
2023/12/03 12:51:22;;;;;;;27.60;17.05;;;6.90;23.50;;;;;;5087018;28;20740;-87
2023/12/03 12:54:07;;;;;;;25.80;17.50;;;7.90;19.90;;;;;;5101250;28;20203;-85
2023/12/03 12:56:54;;;;;;;26.33;17.02;;;8.90;16.40;;;;;;5094110;28;20601;-85
2023/12/03 12:59:40;;;;;;;25.33;14.90;;;9.80;13.30;;;;;;5088613;28;20738;-85
2023/12/03 13:02:26;;;;;;;25.67;16.80;;;10.70;11.00;;;;;;5092301;28;20449;-87
2023/12/03 13:05:11;;;;;;;28.67;17.33;;;11.40;8.60;;;;;;5101935;28;20480;-86
2023/12/03 13:07:57;;;;;;;24.00;15.60;;;11.90;7.30;;;;;;5093636;28;20498;-86
2023/12/03 13:10:43;;;;;;;23.00;15.00;;;12.60;6.00;;;;;;5100015;28;20461;-86
2023/12/03 13:13:30;;;;;;;22.90;14.83;;;12.10;5.40;;;;;;5094341;28;20494;-85
2023/12/03 13:16:15;;;;;;;22.10;15.50;;;10.10;6.80;;;;;;5092941;28;20417;-85
2023/12/03 13:19:01;;;;;;;25.70;16.73;;;8.30;10.50;;;;;;5090906;28;20447;-85
2023/12/03 13:21:47;;;;;;;22.08;16.58;;;6.70;13.70;;;;;;5104017;28;20450;-86
2023/12/03 13:24:32;;;;;;;24.17;15.87;;;5.50;16.60;;;;;;5107497;28;20216;-86
2023/12/03 13:27:18;;;;;;;28.17;18.63;;;4.70;22.40;;;;;;5108370;28;20539;-86
2023/12/03 13:30:07;;;;;;;24.02;16.80;;;4.00;27.70;;;;;;5102712;28;20487;-86
2023/12/03 13:32:54;;;;;;;29.10;17.48;;;3.50;36.70;;;;;;5102795;28;20296;-84
2023/12/03 13:35:39;;;;;;;26.30;17.25;;;3.20;48.00;;;;;;5096486;28;20225;-85
2023/12/03 13:38:25;;;;;;;28.05;18.10;;;2.90;52.00;;;;;;5098492;28;20204;-86
2023/12/03 13:41:11;;;;;;;26.50;17.75;;;2.80;58.20;;;;;;5110761;28;20306;-86
2023/12/03 13:43:56;;;;;;;24.25;16.90;;;2.70;62.80;;;;;;5103919;28;20212;-85
2023/12/03 13:46:45;;;;;;;26.58;17.90;;;2.60;61.00;;;;;;5106612;28;20226;-86
2023/12/03 13:49:31;;;;;;;26.63;17.05;;;2.50;60.00;;;;;;5108284;28;20207;-87
2023/12/03 13:52:17;;;;;;;27.45;17.77;;;2.50;63.20;;;;;;5103397;28;20903;-85
2023/12/03 13:55:02;;;;;;;28.30;17.83;;;2.40;64.60;;;;;;5101361;28;20283;-84
2023/12/03 13:57:48;;;;;;;27.85;16.77;;;2.30;68.20;;;;;;5103839;28;20199;-85
2023/12/03 14:00:34;;;;;;;28.45;18.75;;;2.30;66.20;;;;;;5097453;28;20207;-84
2023/12/03 14:03:21;;;;;;;29.42;17.95;;;2.10;73.40;;;;;;5103764;28;20610;-86
2023/12/03 14:06:07;;;;;;;28.85;18.10;;;2.00;77.60;;;;;;5105992;28;20232;-86
2023/12/03 14:08:53;;;;;;;26.27;18.00;;;1.90;77.90;;;;;;5105054;28;20211;-86